createdAt,value
2023-04-07T00:01:30.459Z,5.40
2023-04-07T00:03:57.516Z,5.40
2023-04-07T00:06:24.634Z,5.40
2023-04-07T00:08:51.331Z,5.40
2023-04-07T00:11:18.073Z,5.40
2023-04-07T00:13:44.958Z,5.40
2023-04-07T00:16:11.673Z,5.30
2023-04-07T00:18:38.412Z,5.40
2023-04-07T00:21:05.270Z,5.40
2023-04-07T00:23:32.079Z,5.40
2023-04-07T00:25:58.844Z,5.40
2023-04-07T00:28:25.701Z,5.40
2023-04-07T00:30:52.373Z,5.40
2023-04-07T00:33:19.116Z,5.40
2023-04-07T00:35:46.076Z,5.40
2023-04-07T00:38:13.155Z,5.50
2023-04-07T00:40:39.936Z,5.40
2023-04-07T00:43:06.690Z,5.40
2023-04-07T00:45:33.510Z,5.40
2023-04-07T00:48:00.574Z,5.40
2023-04-07T00:50:27.588Z,5.40
2023-04-07T00:52:56.986Z,5.40
2023-04-07T00:55:23.768Z,5.20
2023-04-07T00:57:51.798Z,5.10
2023-04-07T01:00:18.545Z,5.20
2023-04-07T01:02:53.334Z,5.20
2023-04-07T01:05:57.144Z,5.20
2023-04-07T01:08:33.275Z,5.10
2023-04-07T01:11:28.496Z,5.10
2023-04-07T01:13:57.202Z,5.10
2023-04-07T01:16:48.916Z,5.10
2023-04-07T01:19:51.547Z,5.20
2023-04-07T01:22:23.586Z,5.20
2023-04-07T01:25:30.394Z,5.30
2023-04-07T01:28:24.836Z,5.40
2023-04-07T01:30:54.549Z,5.40
2023-04-07T01:33:21.755Z,5.40
2023-04-07T01:35:49.909Z,5.40
2023-04-07T01:38:17.288Z,5.40
2023-04-07T01:40:45.825Z,5.30
2023-04-07T01:43:13.670Z,5.30
2023-04-07T01:45:41.308Z,5.30
2023-04-07T01:48:09.264Z,5.30
2023-04-07T01:50:37.170Z,5.30
2023-04-07T01:53:04.948Z,5.20
2023-04-07T01:55:32.586Z,5.20
2023-04-07T01:58:11.020Z,5.20
2023-04-07T02:00:37.712Z,5.20
2023-04-07T02:03:36.249Z,5.20
2023-04-07T02:06:08.581Z,5.20
2023-04-07T02:08:47.045Z,5.20
2023-04-07T02:11:15.503Z,5.20
2023-04-07T02:13:53.628Z,5.20
2023-04-07T02:16:22.337Z,5.20
2023-04-07T02:18:52.036Z,5.20
2023-04-07T02:21:19.721Z,5.20
2023-04-07T02:23:47.068Z,5.30
2023-04-07T02:26:13.881Z,5.30
2023-04-07T02:28:40.567Z,5.30
2023-04-07T02:31:07.262Z,5.30
2023-04-07T02:33:34.044Z,5.40
2023-04-07T02:36:00.887Z,5.30
2023-04-07T02:38:27.556Z,5.40
2023-04-07T02:40:54.265Z,5.40
2023-04-07T02:43:21.671Z,5.40
2023-04-07T02:45:48.374Z,5.40
2023-04-07T02:48:15.352Z,5.40
2023-04-07T02:50:42.122Z,5.50
2023-04-07T02:53:17.883Z,5.60
2023-04-07T02:55:44.836Z,5.60
2023-04-07T02:58:11.467Z,5.60
2023-04-07T03:00:38.098Z,5.60
2023-04-07T03:03:04.890Z,5.70
2023-04-07T03:05:31.710Z,5.70
2023-04-07T03:07:58.333Z,5.70
2023-04-07T03:10:25.036Z,5.70
2023-04-07T03:12:52.172Z,5.70
2023-04-07T03:15:19.057Z,5.70
2023-04-07T03:17:45.885Z,5.70
2023-04-07T03:20:13.030Z,5.80
2023-04-07T03:22:39.759Z,5.80
2023-04-07T03:25:12.286Z,5.80
2023-04-07T03:27:38.954Z,5.80
2023-04-07T03:30:06.207Z,5.90
2023-04-07T03:32:32.949Z,5.90
2023-04-07T03:34:59.677Z,5.90
2023-04-07T03:37:26.509Z,5.90
2023-04-07T03:39:53.111Z,6.00
2023-04-07T03:42:19.815Z,6.00
2023-04-07T03:44:46.404Z,6.00
2023-04-07T03:47:13.026Z,6.00
2023-04-07T03:49:39.689Z,5.90
2023-04-07T03:52:28.886Z,5.90
2023-04-07T03:54:55.473Z,5.90
2023-04-07T03:57:28.237Z,5.80
2023-04-07T03:59:56.132Z,5.80
2023-04-07T04:02:22.903Z,5.80
2023-04-07T04:04:49.692Z,5.70
2023-04-07T04:07:16.585Z,5.60
2023-04-07T04:09:43.240Z,5.60
2023-04-07T04:12:09.868Z,5.50
2023-04-07T04:14:36.492Z,5.50
2023-04-07T04:17:05.503Z,5.40
2023-04-07T04:19:41.750Z,5.40
2023-04-07T04:22:08.549Z,5.40
2023-04-07T04:24:35.340Z,5.40
2023-04-07T04:27:01.976Z,5.40
2023-04-07T04:29:28.602Z,5.40
2023-04-07T04:31:55.294Z,5.40
2023-04-07T04:34:21.944Z,5.40
2023-04-07T04:36:49.273Z,5.40
2023-04-07T04:39:16.090Z,5.40
2023-04-07T04:41:42.803Z,5.30
2023-04-07T04:44:09.760Z,5.30
2023-04-07T04:46:36.965Z,5.40
2023-04-07T04:49:03.883Z,5.30
2023-04-07T04:51:30.819Z,5.40
2023-04-07T04:53:57.633Z,5.40
2023-04-07T04:56:24.316Z,5.40
2023-04-07T04:58:51.024Z,5.30
2023-04-07T05:01:17.814Z,5.30
2023-04-07T05:03:44.867Z,5.30
2023-04-07T05:06:11.678Z,5.30
2023-04-07T05:08:38.419Z,5.30
2023-04-07T05:11:05.264Z,5.30
2023-04-07T05:13:31.946Z,5.30
2023-04-07T05:15:58.622Z,5.30
2023-04-07T05:18:25.558Z,5.20
2023-04-07T05:20:52.277Z,5.20
2023-04-07T05:23:18.963Z,5.20
2023-04-07T05:25:45.693Z,5.30
2023-04-07T05:28:12.395Z,5.30
2023-04-07T05:30:39.165Z,5.30
2023-04-07T05:33:05.881Z,5.30
2023-04-07T05:35:32.765Z,5.40
2023-04-07T05:37:59.453Z,5.40
2023-04-07T05:40:26.166Z,5.40
2023-04-07T05:42:52.827Z,5.60
2023-04-07T05:45:19.916Z,5.60
2023-04-07T05:47:50.082Z,5.80
2023-04-07T05:50:18.077Z,5.90
2023-04-07T05:52:44.874Z,6.10
2023-04-07T05:55:11.631Z,6.30
2023-04-07T05:57:38.464Z,6.50
2023-04-07T06:00:05.802Z,6.60
2023-04-07T06:02:32.829Z,6.90
2023-04-07T06:04:59.697Z,6.90
2023-04-07T06:07:26.539Z,7.20
2023-04-07T06:09:53.324Z,7.30
2023-04-07T06:12:20.529Z,7.40
2023-04-07T06:14:52.880Z,7.60
2023-04-07T06:17:19.521Z,7.30
2023-04-07T06:19:46.434Z,7.40
2023-04-07T06:22:13.180Z,7.40
2023-04-07T06:24:39.876Z,7.50
2023-04-07T06:27:06.871Z,7.60
2023-04-07T06:29:34.340Z,7.70
2023-04-07T06:32:01.518Z,7.80
2023-04-07T06:34:28.352Z,8.00
2023-04-07T06:36:57.317Z,8.20
2023-04-07T06:39:27.002Z,8.40
2023-04-07T06:41:53.681Z,8.60
2023-04-07T06:44:20.554Z,8.60
2023-04-07T06:46:50.319Z,8.40
2023-04-07T06:49:17.197Z,8.50
2023-04-07T06:51:43.938Z,8.20
2023-04-07T06:54:14.806Z,8.20
2023-04-07T06:56:42.150Z,8.30
2023-04-07T06:59:09.246Z,8.20
2023-04-07T07:01:37.681Z,8.20
2023-04-07T07:04:06.238Z,8.20
2023-04-07T07:06:33.114Z,8.10
2023-04-07T07:09:00.852Z,8.10
2023-04-07T07:11:27.581Z,8.10
2023-04-07T07:13:54.392Z,8.20
2023-04-07T07:16:24.279Z,8.30
2023-04-07T07:18:51.324Z,8.20
2023-04-07T07:21:18.936Z,8.30
2023-04-07T07:23:46.031Z,8.10
2023-04-07T07:26:12.862Z,8.00
2023-04-07T07:28:39.591Z,8.00
2023-04-07T07:31:15.810Z,8.00
2023-04-07T07:33:45.841Z,8.00
2023-04-07T07:36:12.844Z,8.00
2023-04-07T07:38:58.354Z,8.20
2023-04-07T07:41:26.291Z,8.20
2023-04-07T07:43:53.304Z,8.50
2023-04-07T07:46:20.127Z,8.60
2023-04-07T07:48:46.808Z,8.60
2023-04-07T07:51:13.671Z,8.80
2023-04-07T07:53:40.313Z,8.90
2023-04-07T07:56:07.018Z,8.80
2023-04-07T07:58:33.737Z,8.80
2023-04-07T08:01:00.596Z,8.80
2023-04-07T08:03:27.324Z,8.80
2023-04-07T08:05:54.489Z,8.90
2023-04-07T08:08:21.245Z,9.00
2023-04-07T08:10:48.810Z,8.90
2023-04-07T08:13:15.961Z,8.90
2023-04-07T08:15:51.670Z,9.20
2023-04-07T08:18:18.576Z,9.80
2023-04-07T08:20:46.670Z,10.40
2023-04-07T08:23:13.409Z,10.70
2023-04-07T08:25:40.256Z,10.60
2023-04-07T08:28:07.070Z,10.90
2023-04-07T08:30:33.797Z,10.90
2023-04-07T08:33:00.636Z,10.90
2023-04-07T08:35:27.338Z,10.30
2023-04-07T08:37:54.031Z,10.10
2023-04-07T08:40:20.916Z,9.80
2023-04-07T08:42:52.625Z,9.70
2023-04-07T08:45:19.579Z,9.40
2023-04-07T08:47:48.183Z,9.30
2023-04-07T08:50:17.569Z,9.40
2023-04-07T08:52:58.322Z,9.50
2023-04-07T08:55:26.262Z,9.60
2023-04-07T08:57:54.320Z,9.80
2023-04-07T09:00:21.168Z,9.70
2023-04-07T09:02:49.423Z,10.00
2023-04-07T09:05:16.348Z,10.10
2023-04-07T09:07:43.331Z,10.40
2023-04-07T09:10:10.438Z,10.20
2023-04-07T09:12:37.606Z,10.20
2023-04-07T09:15:06.857Z,10.70
2023-04-07T09:17:33.675Z,11.10
2023-04-07T09:20:01.080Z,11.30
2023-04-07T09:22:36.936Z,11.50
2023-04-07T09:25:17.165Z,11.70
2023-04-07T09:27:58.173Z,11.40
2023-04-07T09:30:25.477Z,11.50
2023-04-07T09:32:52.350Z,11.30
2023-04-07T09:35:19.482Z,11.50
2023-04-07T09:38:02.228Z,11.40
2023-04-07T09:40:29.173Z,11.50
2023-04-07T09:42:57.117Z,11.50
2023-04-07T09:45:35.377Z,11.40
2023-04-07T09:48:08.482Z,11.20
2023-04-07T09:50:40.990Z,11.40
2023-04-07T09:53:07.977Z,11.00
2023-04-07T09:55:36.670Z,11.30
2023-04-07T09:58:06.259Z,11.60
2023-04-07T10:00:33.396Z,11.60
2023-04-07T10:03:01.027Z,11.90
2023-04-07T10:05:28.197Z,12.00
2023-04-07T10:07:55.310Z,11.90
2023-04-07T10:10:21.979Z,11.90
2023-04-07T10:12:53.358Z,11.70
2023-04-07T10:15:20.875Z,11.70
2023-04-07T10:17:48.606Z,11.90
2023-04-07T10:20:18.696Z,11.80
2023-04-07T10:22:47.729Z,11.80
2023-04-07T10:25:17.082Z,11.10
2023-04-07T10:28:06.598Z,11.30
2023-04-07T10:30:34.171Z,11.50
2023-04-07T10:33:01.317Z,11.40
2023-04-07T10:35:29.845Z,11.60
2023-04-07T10:38:13.527Z,11.40
2023-04-07T10:40:41.472Z,11.40
2023-04-07T10:43:11.100Z,11.10
2023-04-07T10:45:49.956Z,10.90
2023-04-07T10:48:18.327Z,11.20
2023-04-07T10:50:46.258Z,11.20
2023-04-07T10:53:16.567Z,11.30
2023-04-07T10:55:47.125Z,11.20
2023-04-07T10:58:23.961Z,11.60
2023-04-07T11:01:00.570Z,11.80
2023-04-07T11:03:29.728Z,11.90
2023-04-07T11:06:10.991Z,11.50
2023-04-07T11:08:39.602Z,11.60
2023-04-07T11:11:09.559Z,12.00
2023-04-07T11:13:50.478Z,12.10
2023-04-07T11:16:19.362Z,12.30
2023-04-07T11:18:50.908Z,12.60
2023-04-07T11:21:20.460Z,12.70
2023-04-07T11:23:47.979Z,12.70
2023-04-07T11:26:15.984Z,12.70
2023-04-07T11:28:53.970Z,12.60
2023-04-07T11:31:31.628Z,12.60
2023-04-07T11:34:04.727Z,12.70
2023-04-07T11:36:42.285Z,12.30
2023-04-07T11:39:22.381Z,11.90
2023-04-07T11:41:50.678Z,11.70
2023-04-07T11:44:17.536Z,11.80
2023-04-07T11:46:56.450Z,11.60
2023-04-07T11:49:24.411Z,11.10
2023-04-07T11:51:59.973Z,11.10
2023-04-07T11:54:26.833Z,11.10
2023-04-07T11:56:55.946Z,11.20
2023-04-07T11:59:24.825Z,11.40
2023-04-07T12:01:54.733Z,11.70
2023-04-07T12:04:24.150Z,11.20
2023-04-07T12:06:51.583Z,11.50
2023-04-07T12:09:29.335Z,11.60
2023-04-07T12:11:57.746Z,11.70
2023-04-07T12:14:27.905Z,11.90
2023-04-07T12:16:56.756Z,11.60
2023-04-07T12:19:25.606Z,11.50
2023-04-07T12:21:52.260Z,11.40
2023-04-07T12:24:19.079Z,11.30
2023-04-07T12:26:45.851Z,11.50
2023-04-07T12:29:12.492Z,11.70
2023-04-07T12:31:39.253Z,11.70
2023-04-07T12:34:06.310Z,11.90
2023-04-07T12:36:33.307Z,12.10
2023-04-07T12:38:59.965Z,12.00
2023-04-07T12:41:27.668Z,11.70
2023-04-07T12:43:54.471Z,11.50
2023-04-07T12:46:21.783Z,11.40
2023-04-07T12:48:48.440Z,11.60
2023-04-07T12:51:15.432Z,11.90
2023-04-07T12:53:42.150Z,11.90
2023-04-07T12:56:08.898Z,12.00
2023-04-07T12:58:35.653Z,12.00
2023-04-07T13:01:02.436Z,12.20
2023-04-07T13:03:29.461Z,12.40
2023-04-07T13:05:56.364Z,12.40
2023-04-07T13:08:23.105Z,12.40
2023-04-07T13:10:49.771Z,12.40
2023-04-07T13:13:16.502Z,12.40
2023-04-07T13:15:43.243Z,11.90
2023-04-07T13:18:10.032Z,11.80
2023-04-07T13:20:37.933Z,11.80
2023-04-07T13:23:08.289Z,11.80
2023-04-07T13:25:37.590Z,11.60
2023-04-07T13:28:04.509Z,11.60
2023-04-07T13:30:31.404Z,11.70
2023-04-07T13:32:58.129Z,11.50
2023-04-07T13:35:25.078Z,11.40
2023-04-07T13:37:51.806Z,11.00
2023-04-07T13:40:18.646Z,11.00
2023-04-07T13:42:45.862Z,10.90
2023-04-07T13:45:12.583Z,10.60
2023-04-07T13:47:39.386Z,10.30
2023-04-07T13:50:06.542Z,10.00
2023-04-07T13:52:35.207Z,9.80
2023-04-07T13:55:04.249Z,10.00
2023-04-07T13:57:31.507Z,9.90
2023-04-07T13:59:58.338Z,9.90
2023-04-07T14:02:27.949Z,10.30
2023-04-07T14:04:54.853Z,10.40
2023-04-07T14:07:22.903Z,10.10
2023-04-07T14:09:49.879Z,10.20
2023-04-07T14:12:16.861Z,10.40
2023-04-07T14:14:43.587Z,10.50
2023-04-07T14:17:10.826Z,10.40
2023-04-07T14:19:37.486Z,10.40
2023-04-07T14:22:04.268Z,10.50
2023-04-07T14:24:31.148Z,10.40
2023-04-07T14:26:57.826Z,10.30
2023-04-07T14:29:24.619Z,10.30
2023-04-07T14:31:51.506Z,10.30
2023-04-07T14:34:18.409Z,10.40
2023-04-07T14:36:58.542Z,10.70
2023-04-07T14:39:25.793Z,10.80
2023-04-07T14:41:53.663Z,11.10
2023-04-07T14:44:20.379Z,11.70
2023-04-07T14:46:48.231Z,12.10
2023-04-07T14:49:15.317Z,12.40
2023-04-07T14:51:42.024Z,12.00
2023-04-07T14:54:08.686Z,11.90
2023-04-07T14:56:35.678Z,11.80
2023-04-07T14:59:02.358Z,11.80
2023-04-07T15:01:29.103Z,11.60
2023-04-07T15:03:58.459Z,11.70
2023-04-07T15:06:26.367Z,11.70
2023-04-07T15:08:53.234Z,11.70
2023-04-07T15:11:19.892Z,11.70
2023-04-07T15:13:46.780Z,11.50
2023-04-07T15:16:15.762Z,11.40
2023-04-07T15:18:44.666Z,11.40
2023-04-07T15:21:12.352Z,11.30
2023-04-07T15:23:40.426Z,11.60
2023-04-07T15:26:08.454Z,11.60
2023-04-07T15:28:35.298Z,11.80
2023-04-07T15:31:02.272Z,11.80
2023-04-07T15:33:28.978Z,11.60
2023-04-07T15:35:56.408Z,11.60
2023-04-07T15:38:23.180Z,11.90
2023-04-07T15:40:49.999Z,11.90
2023-04-07T15:43:16.724Z,11.60
2023-04-07T15:45:44.574Z,11.50
2023-04-07T15:48:12.081Z,11.50
2023-04-07T15:50:38.995Z,11.40
2023-04-07T15:53:06.463Z,11.50
2023-04-07T15:55:36.889Z,11.40
2023-04-07T15:58:04.295Z,11.40
2023-04-07T16:00:34.057Z,11.30
2023-04-07T16:03:04.642Z,11.20
2023-04-07T16:05:32.315Z,10.90
2023-04-07T16:07:59.113Z,10.70
2023-04-07T16:10:25.917Z,10.60
2023-04-07T16:12:52.686Z,10.40
2023-04-07T16:15:32.482Z,10.20
2023-04-07T16:18:07.321Z,10.20
2023-04-07T16:20:34.213Z,10.00
2023-04-07T16:23:00.959Z,9.80
2023-04-07T16:25:27.767Z,9.70
2023-04-07T16:27:54.688Z,9.40
2023-04-07T16:30:22.040Z,9.20
2023-04-07T16:32:48.860Z,8.80
2023-04-07T16:35:16.278Z,8.70
2023-04-07T16:37:46.162Z,8.70
2023-04-07T16:40:13.483Z,8.50
2023-04-07T16:42:40.773Z,8.50
2023-04-07T16:45:08.519Z,8.20
2023-04-07T16:47:35.913Z,8.00
2023-04-07T16:50:04.285Z,7.70
2023-04-07T16:52:31.542Z,7.50
2023-04-07T16:54:58.985Z,7.30
2023-04-07T16:57:25.798Z,7.30
2023-04-07T16:59:52.741Z,7.20
2023-04-07T17:02:19.956Z,7.20
2023-04-07T17:04:47.023Z,7.30
2023-04-07T17:07:13.916Z,7.30
2023-04-07T17:09:40.776Z,7.30
2023-04-07T17:12:07.891Z,7.30
2023-04-07T17:14:34.796Z,7.30
2023-04-07T17:17:01.926Z,7.40
2023-04-07T17:19:29.209Z,7.40
2023-04-07T17:21:56.148Z,7.60
2023-04-07T17:24:23.480Z,7.70
2023-04-07T17:26:50.504Z,7.70
2023-04-07T17:29:17.500Z,7.90
2023-04-07T17:31:44.397Z,7.90
2023-04-07T17:34:11.922Z,7.70
2023-04-07T17:36:38.968Z,7.60
2023-04-07T17:39:05.963Z,7.50
2023-04-07T17:41:34.672Z,7.50
2023-04-07T17:44:02.270Z,7.50
2023-04-07T17:46:29.552Z,7.50
2023-04-07T17:48:59.025Z,7.50
2023-04-07T17:51:26.727Z,7.50
2023-04-07T17:53:54.195Z,7.50
2023-04-07T17:56:21.359Z,7.40
2023-04-07T17:58:48.384Z,7.40
2023-04-07T18:01:16.716Z,7.40
2023-04-07T18:03:44.056Z,7.30
2023-04-07T18:06:16.944Z,7.40
2023-04-07T18:08:48.586Z,7.40
2023-04-07T18:11:16.659Z,7.40
2023-04-07T18:13:43.458Z,7.40
2023-04-07T18:16:11.767Z,7.30
2023-04-07T18:18:38.758Z,7.30
2023-04-07T18:21:08.737Z,7.30
2023-04-07T18:23:35.528Z,7.30
2023-04-07T18:26:06.526Z,7.20
2023-04-07T18:28:34.080Z,7.20
2023-04-07T18:31:06.451Z,7.20
2023-04-07T18:33:34.259Z,7.00
2023-04-07T18:36:03.890Z,6.90
2023-04-07T18:38:30.875Z,6.90
2023-04-07T18:40:57.837Z,6.80
2023-04-07T18:43:24.897Z,6.70
2023-04-07T18:45:52.805Z,6.60
2023-04-07T18:48:20.166Z,6.60
2023-04-07T18:50:52.067Z,6.60
2023-04-07T18:53:20.077Z,6.70
2023-04-07T18:55:47.055Z,6.70
2023-04-07T18:58:14.523Z,6.80
2023-04-07T19:00:42.228Z,6.90
2023-04-07T19:03:09.199Z,7.00
2023-04-07T19:05:38.937Z,7.00
2023-04-07T19:08:06.228Z,7.10
2023-04-07T19:10:32.950Z,7.20
2023-04-07T19:13:00.745Z,7.20
2023-04-07T19:15:30.027Z,7.20
2023-04-07T19:17:57.010Z,7.10
2023-04-07T19:20:23.748Z,7.10
2023-04-07T19:22:50.472Z,7.20
2023-04-07T19:25:17.279Z,7.10
2023-04-07T19:27:44.572Z,7.20
2023-04-07T19:30:11.855Z,7.10
2023-04-07T19:32:38.969Z,7.20
2023-04-07T19:35:12.037Z,7.10
2023-04-07T19:37:40.464Z,7.20
2023-04-07T19:40:07.771Z,7.20
2023-04-07T19:42:35.820Z,7.20
2023-04-07T19:45:04.917Z,7.30
2023-04-07T19:47:31.692Z,7.20
2023-04-07T19:49:58.514Z,7.20
2023-04-07T19:52:25.834Z,7.20
2023-04-07T19:54:52.775Z,7.20
2023-04-07T19:57:19.524Z,7.30
2023-04-07T19:59:46.269Z,7.20
2023-04-07T20:02:13.065Z,7.30
2023-04-07T20:04:39.846Z,7.20
2023-04-07T20:07:06.679Z,7.10
2023-04-07T20:09:33.422Z,7.20
2023-04-07T20:12:01.597Z,7.20
2023-04-07T20:14:28.300Z,7.20
2023-04-07T20:16:54.992Z,7.20
2023-04-07T20:19:21.987Z,7.20
2023-04-07T20:21:48.762Z,7.20
2023-04-07T20:24:16.356Z,7.20
2023-04-07T20:26:43.072Z,7.10
2023-04-07T20:29:09.801Z,7.20
2023-04-07T20:31:36.544Z,7.20
2023-04-07T20:34:03.537Z,7.20
2023-04-07T20:36:31.263Z,7.30
2023-04-07T20:38:58.690Z,7.30
2023-04-07T20:41:25.427Z,7.20
2023-04-07T20:43:52.668Z,7.20
2023-04-07T20:46:19.653Z,7.20
2023-04-07T20:48:47.174Z,7.10
2023-04-07T20:51:14.107Z,7.10
2023-04-07T20:53:41.085Z,7.10
2023-04-07T20:56:07.825Z,7.10
2023-04-07T20:58:34.587Z,7.10
2023-04-07T21:01:01.606Z,7.10
2023-04-07T21:03:29.043Z,7.10
2023-04-07T21:05:57.215Z,7.10
2023-04-07T21:08:24.597Z,7.10
2023-04-07T21:10:52.580Z,7.10
2023-04-07T21:13:19.982Z,7.10
2023-04-07T21:15:46.741Z,7.10
2023-04-07T21:18:13.494Z,7.10
2023-04-07T21:20:40.341Z,7.20
2023-04-07T21:23:08.595Z,7.20
2023-04-07T21:25:38.295Z,7.10
2023-04-07T21:28:05.648Z,7.20
2023-04-07T21:30:33.187Z,7.10
2023-04-07T21:33:00.127Z,7.10
2023-04-07T21:35:30.937Z,7.10
2023-04-07T21:37:57.714Z,7.10
2023-04-07T21:40:24.402Z,7.00
2023-04-07T21:42:52.041Z,7.10
2023-04-07T21:45:19.539Z,7.10
2023-04-07T21:47:46.860Z,7.10
2023-04-07T21:50:13.732Z,7.10
2023-04-07T21:52:41.194Z,7.00
2023-04-07T21:55:09.993Z,7.10
2023-04-07T21:57:36.940Z,7.10
2023-04-07T22:00:04.194Z,7.10
2023-04-07T22:02:31.104Z,7.10
2023-04-07T22:04:57.976Z,7.10
2023-04-07T22:07:24.745Z,7.10
2023-04-07T22:09:51.408Z,7.10
2023-04-07T22:12:18.079Z,7.10
2023-04-07T22:14:45.343Z,7.00
2023-04-07T22:17:12.124Z,7.00
2023-04-07T22:19:38.795Z,7.00
2023-04-07T22:22:07.725Z,7.00
2023-04-07T22:24:35.152Z,7.00
2023-04-07T22:27:02.251Z,7.00
2023-04-07T22:29:29.004Z,7.00
2023-04-07T22:31:55.909Z,7.00
2023-04-07T22:34:22.628Z,7.00
2023-04-07T22:36:49.501Z,7.10
2023-04-07T22:39:16.263Z,7.10
2023-04-07T22:41:43.035Z,7.10
2023-04-07T22:44:09.828Z,7.10
2023-04-07T22:46:36.752Z,7.10
2023-04-07T22:49:04.468Z,7.00
2023-04-07T22:51:31.208Z,7.10
2023-04-07T22:53:58.080Z,7.00
2023-04-07T22:56:25.448Z,7.00
2023-04-07T22:58:52.278Z,7.00
2023-04-07T23:01:19.138Z,7.00
2023-04-07T23:03:47.493Z,7.00
2023-04-07T23:06:14.472Z,7.00
2023-04-07T23:08:41.392Z,6.90
2023-04-07T23:11:11.481Z,6.90
2023-04-07T23:13:38.568Z,6.90
2023-04-07T23:16:06.451Z,6.90
2023-04-07T23:18:33.254Z,6.90
2023-04-07T23:21:00.136Z,6.80
2023-04-07T23:23:27.118Z,6.90
2023-04-07T23:25:53.885Z,6.80
2023-04-07T23:28:21.197Z,6.90
2023-04-07T23:30:47.952Z,6.90
2023-04-07T23:33:14.877Z,6.80
2023-04-07T23:35:41.607Z,6.90
2023-04-07T23:38:09.306Z,6.90
2023-04-07T23:40:36.437Z,6.90
2023-04-07T23:43:03.129Z,6.80
2023-04-07T23:45:29.878Z,6.80
2023-04-07T23:47:56.555Z,6.70
2023-04-07T23:50:23.377Z,6.70
2023-04-07T23:52:50.008Z,6.60
2023-04-07T23:55:16.779Z,6.60
2023-04-07T23:57:43.677Z,6.60
